sensor_id;sensor_type;location;lat;lon;timestamp;pressure;altitude;pressure_sealevel;temperature;humidity
42519;BME280;28147;47.520;18.920;2022-12-24T00:00:13;97817.44;;;6.65;100.00
42519;BME280;28147;47.520;18.920;2022-12-24T00:02:38;97818.09;;;6.60;100.00
42519;BME280;28147;47.520;18.920;2022-12-24T00:08:07;97827.28;;;6.57;100.00
42519;BME280;28147;47.520;18.920;2022-12-24T00:10:33;97824.56;;;6.64;100.00
42519;BME280;28147;47.520;18.920;2022-12-24T00:12:58;97829.97;;;6.69;100.00
42519;BME280;28147;47.520;18.920;2022-12-24T00:15:23;97829.91;;;6.76;100.00
42519;BME280;28147;47.520;18.920;2022-12-24T00:20:58;97803.03;;;6.79;100.00
42519;BME280;28147;47.520;18.920;2022-12-24T00:23:24;97809.13;;;6.79;100.00
42519;BME280;28147;47.520;18.920;2022-12-24T00:27:48;97809.91;;;6.80;100.00
42519;BME280;28147;47.520;18.920;2022-12-24T00:38:09;97845.19;;;6.74;100.00
42519;BME280;28147;47.520;18.920;2022-12-24T00:40:35;97871.69;;;6.86;100.00
42519;BME280;28147;47.520;18.920;2022-12-24T00:43:00;97864.22;;;6.64;100.00
42519;BME280;28147;47.520;18.920;2022-12-24T00:45:25;97860.34;;;6.48;100.00
42519;BME280;28147;47.520;18.920;2022-12-24T00:47:52;97845.78;;;6.21;100.00
42519;BME280;28147;47.520;18.920;2022-12-24T00:50:17;97841.97;;;6.17;100.00
42519;BME280;28147;47.520;18.920;2022-12-24T00:52:43;97854.00;;;6.31;100.00
42519;BME280;28147;47.520;18.920;2022-12-24T00:55:08;97862.91;;;6.37;100.00
42519;BME280;28147;47.520;18.920;2022-12-24T00:57:33;97856.31;;;6.46;100.00
42519;BME280;28147;47.520;18.920;2022-12-24T01:00:43;97844.03;;;6.51;100.00
42519;BME280;28147;47.520;18.920;2022-12-24T01:03:28;97825.97;;;6.67;100.00
42519;BME280;28147;47.520;18.920;2022-12-24T01:06:13;97831.38;;;6.72;100.00
42519;BME280;28147;47.520;18.920;2022-12-24T01:08:39;97816.91;;;6.74;100.00
42519;BME280;28147;47.520;18.920;2022-12-24T01:11:06;97809.00;;;6.74;100.00
42519;BME280;28147;47.520;18.920;2022-12-24T01:13:33;97803.44;;;6.94;100.00
42519;BME280;28147;47.520;18.920;2022-12-24T01:15:58;97805.38;;;6.99;100.00
42519;BME280;28147;47.520;18.920;2022-12-24T01:18:24;97799.75;;;6.95;100.00
42519;BME280;28147;47.520;18.920;2022-12-24T01:21:01;97799.56;;;7.09;100.00
42519;BME280;28147;47.520;18.920;2022-12-24T01:23:28;97798.25;;;6.99;100.00
42519;BME280;28147;47.520;18.920;2022-12-24T01:25:54;97769.81;;;6.95;100.00
42519;BME280;28147;47.520;18.920;2022-12-24T01:28:20;97777.44;;;6.73;100.00
42519;BME280;28147;47.520;18.920;2022-12-24T01:30:47;97773.53;;;6.94;100.00
42519;BME280;28147;47.520;18.920;2022-12-24T01:33:12;97764.97;;;6.92;100.00
42519;BME280;28147;47.520;18.920;2022-12-24T01:37:37;97782.38;;;6.69;100.00
42519;BME280;28147;47.520;18.920;2022-12-24T01:40:05;97769.72;;;6.90;100.00
42519;BME280;28147;47.520;18.920;2022-12-24T01:42:48;97796.56;;;6.75;100.00
42519;BME280;28147;47.520;18.920;2022-12-24T01:45:41;97804.00;;;6.96;100.00
42519;BME280;28147;47.520;18.920;2022-12-24T01:48:25;97784.38;;;6.86;100.00
42519;BME280;28147;47.520;18.920;2022-12-24T01:50:56;97782.94;;;6.90;100.00
42519;BME280;28147;47.520;18.920;2022-12-24T01:53:22;97792.31;;;6.86;100.00
42519;BME280;28147;47.520;18.920;2022-12-24T01:55:48;97801.75;;;6.81;100.00
42519;BME280;28147;47.520;18.920;2022-12-24T01:58:16;97802.34;;;6.83;100.00
42519;BME280;28147;47.520;18.920;2022-12-24T02:00:43;97792.81;;;6.82;100.00
42519;BME280;28147;47.520;18.920;2022-12-24T02:03:08;97791.53;;;6.85;100.00
42519;BME280;28147;47.520;18.920;2022-12-24T02:05:41;97792.13;;;6.87;100.00
42519;BME280;28147;47.520;18.920;2022-12-24T02:08:10;97781.44;;;6.64;100.00
42519;BME280;28147;47.520;18.920;2022-12-24T02:10:36;97804.19;;;6.83;100.00
42519;BME280;28147;47.520;18.920;2022-12-24T02:13:02;97804.34;;;6.70;100.00
42519;BME280;28147;47.520;18.920;2022-12-24T02:15:44;97785.34;;;6.61;100.00
42519;BME280;28147;47.520;18.920;2022-12-24T02:23:40;97856.81;;;6.54;100.00
42519;BME280;28147;47.520;18.920;2022-12-24T02:37:10;97819.91;;;6.78;100.00
42519;BME280;28147;47.520;18.920;2022-12-24T02:44:29;97796.25;;;6.83;100.00
42519;BME280;28147;47.520;18.920;2022-12-24T02:49:32;97798.97;;;6.76;100.00
42519;BME280;28147;47.520;18.920;2022-12-24T02:51:57;97795.56;;;6.88;100.00
42519;BME280;28147;47.520;18.920;2022-12-24T02:54:23;97800.50;;;6.84;100.00
42519;BME280;28147;47.520;18.920;2022-12-24T02:57:10;97807.91;;;6.94;100.00
42519;BME280;28147;47.520;18.920;2022-12-24T03:00:06;97811.09;;;6.84;100.00
42519;BME280;28147;47.520;18.920;2022-12-24T03:08:15;97823.75;;;6.82;100.00
42519;BME280;28147;47.520;18.920;2022-12-24T03:10:53;97839.94;;;6.86;100.00
42519;BME280;28147;47.520;18.920;2022-12-24T03:13:22;97834.31;;;6.82;100.00
42519;BME280;28147;47.520;18.920;2022-12-24T03:15:49;97833.22;;;6.71;100.00
42519;BME280;28147;47.520;18.920;2022-12-24T03:18:21;97816.13;;;6.55;100.00
42519;BME280;28147;47.520;18.920;2022-12-24T03:20:53;97802.47;;;6.40;100.00
42519;BME280;28147;47.520;18.920;2022-12-24T03:23:22;97804.47;;;6.26;100.00
42519;BME280;28147;47.520;18.920;2022-12-24T03:39:37;97816.56;;;6.52;100.00
42519;BME280;28147;47.520;18.920;2022-12-24T03:50:02;97847.41;;;6.40;100.00
42519;BME280;28147;47.520;18.920;2022-12-24T03:56:16;97846.97;;;6.43;100.00
42519;BME280;28147;47.520;18.920;2022-12-24T03:58:41;97841.69;;;6.43;100.00
42519;BME280;28147;47.520;18.920;2022-12-24T04:07:04;97840.66;;;6.44;100.00
42519;BME280;28147;47.520;18.920;2022-12-24T04:09:30;97840.56;;;6.32;100.00
42519;BME280;28147;47.520;18.920;2022-12-24T04:13:16;97841.47;;;6.45;100.00
42519;BME280;28147;47.520;18.920;2022-12-24T04:15:41;97858.81;;;6.41;100.00
42519;BME280;28147;47.520;18.920;2022-12-24T04:22:14;97854.63;;;6.33;100.00
42519;BME280;28147;47.520;18.920;2022-12-24T04:30:30;97857.53;;;6.06;100.00
42519;BME280;28147;47.520;18.920;2022-12-24T04:36:51;97848.00;;;6.24;100.00
42519;BME280;28147;47.520;18.920;2022-12-24T04:39:17;97844.13;;;6.45;100.00
42519;BME280;28147;47.520;18.920;2022-12-24T04:43:35;97850.81;;;6.29;100.00
42519;BME280;28147;47.520;18.920;2022-12-24T04:52:22;97841.22;;;6.28;100.00
42519;BME280;28147;47.520;18.920;2022-12-24T04:54:47;97857.41;;;6.38;100.00
42519;BME280;28147;47.520;18.920;2022-12-24T04:57:13;97858.94;;;6.27;100.00
42519;BME280;28147;47.520;18.920;2022-12-24T04:59:38;97866.56;;;6.36;100.00
42519;BME280;28147;47.520;18.920;2022-12-24T05:02:03;97858.06;;;6.33;100.00
42519;BME280;28147;47.520;18.920;2022-12-24T05:04:29;97856.34;;;6.21;100.00
42519;BME280;28147;47.520;18.920;2022-12-24T05:08:53;97867.16;;;6.19;100.00
42519;BME280;28147;47.520;18.920;2022-12-24T05:13:05;97869.94;;;6.24;100.00
42519;BME280;28147;47.520;18.920;2022-12-24T05:15:30;97869.13;;;6.24;100.00
42519;BME280;28147;47.520;18.920;2022-12-24T05:19:07;97869.78;;;6.19;100.00
42519;BME280;28147;47.520;18.920;2022-12-24T05:21:32;97862.38;;;6.28;100.00
42519;BME280;28147;47.520;18.920;2022-12-24T05:23:58;97863.88;;;6.42;100.00
42519;BME280;28147;47.520;18.920;2022-12-24T05:29:06;97871.06;;;6.53;100.00
42519;BME280;28147;47.520;18.920;2022-12-24T05:35:04;97882.94;;;6.63;100.00
42519;BME280;28147;47.520;18.920;2022-12-24T05:37:29;97877.16;;;6.54;100.00
42519;BME280;28147;47.520;18.920;2022-12-24T05:39:55;97879.44;;;6.50;100.00
42519;BME280;28147;47.520;18.920;2022-12-24T05:42:20;97890.31;;;6.61;100.00
42519;BME280;28147;47.520;18.920;2022-12-24T05:44:45;97878.94;;;6.60;100.00
42519;BME280;28147;47.520;18.920;2022-12-24T05:47:11;97879.22;;;6.52;100.00
42519;BME280;28147;47.520;18.920;2022-12-24T05:50:54;97884.84;;;6.74;100.00
42519;BME280;28147;47.520;18.920;2022-12-24T05:53:20;97887.28;;;6.94;100.00
42519;BME280;28147;47.520;18.920;2022-12-24T05:55:46;97888.66;;;6.96;100.00
42519;BME280;28147;47.520;18.920;2022-12-24T05:58:11;97885.81;;;6.98;100.00
42519;BME280;28147;47.520;18.920;2022-12-24T06:00:37;97890.88;;;6.99;100.00
42519;BME280;28147;47.520;18.920;2022-12-24T06:04:57;97884.41;;;6.95;100.00
42519;BME280;28147;47.520;18.920;2022-12-24T06:07:23;97883.59;;;6.95;100.00
42519;BME280;28147;47.520;18.920;2022-12-24T06:09:48;97895.22;;;6.94;100.00
42519;BME280;28147;47.520;18.920;2022-12-24T06:15:10;97893.31;;;6.64;100.00
42519;BME280;28147;47.520;18.920;2022-12-24T06:20:11;97901.47;;;6.63;100.00
42519;BME280;28147;47.520;18.920;2022-12-24T06:22:37;97903.09;;;6.64;100.00
42519;BME280;28147;47.520;18.920;2022-12-24T06:27:39;97904.03;;;6.69;100.00
42519;BME280;28147;47.520;18.920;2022-12-24T06:30:05;97897.22;;;6.80;100.00
42519;BME280;28147;47.520;18.920;2022-12-24T06:32:30;97902.81;;;6.72;100.00
42519;BME280;28147;47.520;18.920;2022-12-24T06:34:55;97894.81;;;6.78;100.00
42519;BME280;28147;47.520;18.920;2022-12-24T06:37:21;97911.09;;;6.75;100.00
42519;BME280;28147;47.520;18.920;2022-12-24T06:39:46;97905.88;;;6.87;100.00
42519;BME280;28147;47.520;18.920;2022-12-24T06:42:12;97921.31;;;6.90;100.00
42519;BME280;28147;47.520;18.920;2022-12-24T06:45:37;97933.13;;;6.88;100.00
42519;BME280;28147;47.520;18.920;2022-12-24T06:48:03;97940.03;;;6.89;100.00
42519;BME280;28147;47.520;18.920;2022-12-24T06:50:28;97941.81;;;6.95;100.00
42519;BME280;28147;47.520;18.920;2022-12-24T06:52:53;97935.56;;;6.89;100.00
42519;BME280;28147;47.520;18.920;2022-12-24T06:55:19;97943.41;;;6.96;100.00
42519;BME280;28147;47.520;18.920;2022-12-24T06:57:44;97937.09;;;6.97;100.00
42519;BME280;28147;47.520;18.920;2022-12-24T07:00:11;97941.94;;;7.00;100.00
42519;BME280;28147;47.520;18.920;2022-12-24T07:02:43;97940.03;;;7.07;100.00
42519;BME280;28147;47.520;18.920;2022-12-24T07:05:10;97959.72;;;7.11;100.00
42519;BME280;28147;47.520;18.920;2022-12-24T07:07:41;97948.94;;;7.13;100.00
42519;BME280;28147;47.520;18.920;2022-12-24T07:10:10;97945.47;;;7.12;100.00
42519;BME280;28147;47.520;18.920;2022-12-24T07:12:36;97942.06;;;7.23;100.00
42519;BME280;28147;47.520;18.920;2022-12-24T07:15:01;97946.56;;;7.23;100.00
42519;BME280;28147;47.520;18.920;2022-12-24T07:17:27;97942.47;;;7.09;100.00
42519;BME280;28147;47.520;18.920;2022-12-24T07:19:52;97948.19;;;7.24;100.00
42519;BME280;28147;47.520;18.920;2022-12-24T07:22:17;97941.41;;;7.28;100.00
42519;BME280;28147;47.520;18.920;2022-12-24T07:24:43;97935.53;;;7.26;100.00
42519;BME280;28147;47.520;18.920;2022-12-24T07:27:08;97943.16;;;7.34;100.00
42519;BME280;28147;47.520;18.920;2022-12-24T07:29:34;97942.44;;;7.27;100.00
42519;BME280;28147;47.520;18.920;2022-12-24T07:31:59;97956.69;;;7.44;100.00
42519;BME280;28147;47.520;18.920;2022-12-24T07:34:25;97949.91;;;7.48;100.00
42519;BME280;28147;47.520;18.920;2022-12-24T07:36:50;97966.31;;;7.69;100.00
42519;BME280;28147;47.520;18.920;2022-12-24T07:39:16;97961.13;;;7.62;100.00
42519;BME280;28147;47.520;18.920;2022-12-24T07:41:41;97955.16;;;7.67;100.00
42519;BME280;28147;47.520;18.920;2022-12-24T07:44:11;97960.72;;;7.77;100.00
42519;BME280;28147;47.520;18.920;2022-12-24T07:46:37;97972.25;;;7.83;100.00
42519;BME280;28147;47.520;18.920;2022-12-24T07:49:02;97988.41;;;7.93;100.00
42519;BME280;28147;47.520;18.920;2022-12-24T07:51:27;97986.44;;;7.88;100.00
42519;BME280;28147;47.520;18.920;2022-12-24T07:53:53;97992.44;;;7.95;100.00
42519;BME280;28147;47.520;18.920;2022-12-24T07:56:18;97976.97;;;7.80;100.00
42519;BME280;28147;47.520;18.920;2022-12-24T07:58:43;98007.31;;;7.96;100.00
42519;BME280;28147;47.520;18.920;2022-12-24T08:01:09;97999.13;;;7.98;100.00
42519;BME280;28147;47.520;18.920;2022-12-24T08:03:35;98010.13;;;8.13;100.00
42519;BME280;28147;47.520;18.920;2022-12-24T08:06:00;98014.16;;;8.16;100.00
42519;BME280;28147;47.520;18.920;2022-12-24T08:08:26;98017.50;;;8.11;100.00
42519;BME280;28147;47.520;18.920;2022-12-24T08:10:52;98016.34;;;8.07;100.00
42519;BME280;28147;47.520;18.920;2022-12-24T08:13:17;98024.38;;;8.00;100.00
42519;BME280;28147;47.520;18.920;2022-12-24T08:15:43;98029.78;;;7.94;100.00
42519;BME280;28147;47.520;18.920;2022-12-24T08:18:10;98039.53;;;8.12;100.00
42519;BME280;28147;47.520;18.920;2022-12-24T08:20:37;98045.19;;;8.15;100.00
42519;BME280;28147;47.520;18.920;2022-12-24T08:23:03;98049.00;;;8.19;100.00
42519;BME280;28147;47.520;18.920;2022-12-24T08:25:28;98058.47;;;8.27;100.00
42519;BME280;28147;47.520;18.920;2022-12-24T08:27:54;98061.69;;;8.29;100.00
42519;BME280;28147;47.520;18.920;2022-12-24T08:30:19;98066.53;;;8.32;100.00
42519;BME280;28147;47.520;18.920;2022-12-24T08:32:45;98068.16;;;8.33;100.00
42519;BME280;28147;47.520;18.920;2022-12-24T08:35:10;98075.19;;;8.27;100.00
42519;BME280;28147;47.520;18.920;2022-12-24T08:37:35;98084.75;;;8.28;100.00
42519;BME280;28147;47.520;18.920;2022-12-24T08:40:01;98084.72;;;8.17;100.00
42519;BME280;28147;47.520;18.920;2022-12-24T08:42:26;98099.56;;;8.18;100.00
42519;BME280;28147;47.520;18.920;2022-12-24T08:44:52;98096.47;;;8.21;100.00
42519;BME280;28147;47.520;18.920;2022-12-24T08:47:17;98106.19;;;8.27;100.00
42519;BME280;28147;47.520;18.920;2022-12-24T08:49:42;98108.75;;;8.34;100.00
42519;BME280;28147;47.520;18.920;2022-12-24T08:52:08;98121.13;;;8.40;100.00
42519;BME280;28147;47.520;18.920;2022-12-24T08:54:33;98117.53;;;8.34;100.00
42519;BME280;28147;47.520;18.920;2022-12-24T08:56:59;98118.53;;;8.33;100.00
42519;BME280;28147;47.520;18.920;2022-12-24T08:59:24;98127.72;;;8.37;100.00
42519;BME280;28147;47.520;18.920;2022-12-24T09:01:49;98123.22;;;8.38;100.00
42519;BME280;28147;47.520;18.920;2022-12-24T09:04:15;98122.28;;;8.44;100.00
42519;BME280;28147;47.520;18.920;2022-12-24T09:06:40;98122.28;;;8.44;100.00
42519;BME280;28147;47.520;18.920;2022-12-24T09:09:06;98132.91;;;8.44;100.00
42519;BME280;28147;47.520;18.920;2022-12-24T09:11:33;98124.84;;;8.50;100.00
42519;BME280;28147;47.520;18.920;2022-12-24T09:13:59;98121.72;;;8.42;100.00
42519;BME280;28147;47.520;18.920;2022-12-24T09:16:24;98131.22;;;8.49;100.00
42519;BME280;28147;47.520;18.920;2022-12-24T09:18:50;98140.66;;;8.45;100.00
42519;BME280;28147;47.520;18.920;2022-12-24T09:21:15;98135.47;;;8.50;100.00
42519;BME280;28147;47.520;18.920;2022-12-24T09:23:43;98140.81;;;8.62;100.00
42519;BME280;28147;47.520;18.920;2022-12-24T09:26:13;98139.31;;;8.66;100.00
42519;BME280;28147;47.520;18.920;2022-12-24T09:28:38;98141.88;;;8.73;100.00
42519;BME280;28147;47.520;18.920;2022-12-24T09:31:04;98148.78;;;8.74;100.00
42519;BME280;28147;47.520;18.920;2022-12-24T09:33:34;98151.94;;;8.83;100.00
42519;BME280;28147;47.520;18.920;2022-12-24T09:36:00;98153.75;;;8.82;100.00
42519;BME280;28147;47.520;18.920;2022-12-24T09:38:26;98159.00;;;9.00;100.00
42519;BME280;28147;47.520;18.920;2022-12-24T09:40:52;98162.47;;;9.13;100.00
42519;BME280;28147;47.520;18.920;2022-12-24T09:43:21;98157.50;;;9.16;100.00
42519;BME280;28147;47.520;18.920;2022-12-24T09:48:24;98162.59;;;9.41;100.00
42519;BME280;28147;47.520;18.920;2022-12-24T09:51:17;98154.19;;;9.33;100.00
42519;BME280;28147;47.520;18.920;2022-12-24T09:56:22;98154.03;;;9.16;100.00
42519;BME280;28147;47.520;18.920;2022-12-24T09:58:55;98172.53;;;9.34;100.00
42519;BME280;28147;47.520;18.920;2022-12-24T10:01:22;98176.22;;;9.21;100.00
42519;BME280;28147;47.520;18.920;2022-12-24T10:03:48;98177.94;;;9.39;100.00
42519;BME280;28147;47.520;18.920;2022-12-24T10:06:17;98185.34;;;9.37;100.00
42519;BME280;28147;47.520;18.920;2022-12-24T10:11:41;98185.81;;;9.46;100.00
42519;BME280;28147;47.520;18.920;2022-12-24T10:24:53;98174.56;;;9.79;100.00
42519;BME280;28147;47.520;18.920;2022-12-24T10:27:27;98188.44;;;9.93;100.00
42519;BME280;28147;47.520;18.920;2022-12-24T10:30:00;98183.25;;;9.86;100.00
42519;BME280;28147;47.520;18.920;2022-12-24T10:32:31;98179.63;;;9.92;100.00
42519;BME280;28147;47.520;18.920;2022-12-24T10:34:59;98184.84;;;9.87;100.00
42519;BME280;28147;47.520;18.920;2022-12-24T10:37:28;98190.63;;;9.84;100.00
42519;BME280;28147;47.520;18.920;2022-12-24T10:39:54;98195.59;;;9.92;100.00
42519;BME280;28147;47.520;18.920;2022-12-24T10:42:22;98190.94;;;9.99;100.00
42519;BME280;28147;47.520;18.920;2022-12-24T10:44:51;98185.59;;;10.11;100.00
42519;BME280;28147;47.520;18.920;2022-12-24T10:47:20;98201.44;;;10.18;100.00
42519;BME280;28147;47.520;18.920;2022-12-24T10:50:14;98196.44;;;10.21;100.00
42519;BME280;28147;47.520;18.920;2022-12-24T10:52:43;98203.53;;;10.16;100.00
42519;BME280;28147;47.520;18.920;2022-12-24T10:57:39;98191.66;;;9.95;100.00
42519;BME280;28147;47.520;18.920;2022-12-24T11:00:06;98198.03;;;9.94;100.00
42519;BME280;28147;47.520;18.920;2022-12-24T11:02:33;98196.16;;;9.94;100.00
42519;BME280;28147;47.520;18.920;2022-12-24T11:05:01;98204.16;;;9.94;100.00
42519;BME280;28147;47.520;18.920;2022-12-24T11:07:28;98214.56;;;9.84;100.00
42519;BME280;28147;47.520;18.920;2022-12-24T11:12:25;98210.53;;;9.70;98.36
42519;BME280;28147;47.520;18.920;2022-12-24T11:15:03;98204.53;;;9.63;96.91
42519;BME280;28147;47.520;18.920;2022-12-24T11:17:30;98206.56;;;9.84;93.63
42519;BME280;28147;47.520;18.920;2022-12-24T11:19:56;98211.78;;;9.79;92.01
42519;BME280;28147;47.520;18.920;2022-12-24T11:22:27;98223.69;;;9.77;89.91
42519;BME280;28147;47.520;18.920;2022-12-24T11:25:03;98227.84;;;9.84;89.85
42519;BME280;28147;47.520;18.920;2022-12-24T11:27:47;98235.03;;;9.84;89.56
42519;BME280;28147;47.520;18.920;2022-12-24T11:32:46;98240.34;;;9.84;88.55
42519;BME280;28147;47.520;18.920;2022-12-24T11:35:22;98230.28;;;9.86;89.50
42519;BME280;28147;47.520;18.920;2022-12-24T11:38:08;98239.16;;;9.91;87.79
42519;BME280;28147;47.520;18.920;2022-12-24T11:40:46;98231.78;;;9.93;88.13
42519;BME280;28147;47.520;18.920;2022-12-24T11:43:18;98237.69;;;9.84;88.57
42519;BME280;28147;47.520;18.920;2022-12-24T11:45:52;98236.88;;;9.83;88.94
42519;BME280;28147;47.520;18.920;2022-12-24T11:48:25;98230.84;;;9.88;88.23
42519;BME280;28147;47.520;18.920;2022-12-24T11:51:02;98234.09;;;9.90;89.04
42519;BME280;28147;47.520;18.920;2022-12-24T11:54:05;98242.88;;;10.02;87.75
42519;BME280;28147;47.520;18.920;2022-12-24T11:56:32;98239.03;;;10.10;87.49
42519;BME280;28147;47.520;18.920;2022-12-24T11:59:06;98239.47;;;10.18;86.46
42519;BME280;28147;47.520;18.920;2022-12-24T12:02:14;98248.03;;;10.20;86.41
42519;BME280;28147;47.520;18.920;2022-12-24T12:04:43;98246.47;;;10.08;86.85
42519;BME280;28147;47.520;18.920;2022-12-24T12:07:14;98239.47;;;10.18;86.03
42519;BME280;28147;47.520;18.920;2022-12-24T12:09:52;98247.78;;;10.22;83.36
42519;BME280;28147;47.520;18.920;2022-12-24T12:12:23;98252.91;;;10.23;84.96
42519;BME280;28147;47.520;18.920;2022-12-24T12:15:00;98248.84;;;10.21;85.15
42519;BME280;28147;47.520;18.920;2022-12-24T12:20:27;98246.91;;;10.16;84.04
42519;BME280;28147;47.520;18.920;2022-12-24T12:22:59;98252.44;;;10.15;85.12
42519;BME280;28147;47.520;18.920;2022-12-24T12:25:32;98244.69;;;10.13;85.13
42519;BME280;28147;47.520;18.920;2022-12-24T12:28:02;98252.09;;;10.23;85.38
42519;BME280;28147;47.520;18.920;2022-12-24T12:30:31;98254.53;;;10.13;84.78
42519;BME280;28147;47.520;18.920;2022-12-24T12:33:05;98265.50;;;10.16;83.81
42519;BME280;28147;47.520;18.920;2022-12-24T12:35:37;98265.25;;;10.18;84.06
42519;BME280;28147;47.520;18.920;2022-12-24T12:38:24;98269.44;;;10.14;84.00
42519;BME280;28147;47.520;18.920;2022-12-24T12:46:24;98275.22;;;9.99;84.32
42519;BME280;28147;47.520;18.920;2022-12-24T12:51:52;98279.75;;;9.98;82.63
42519;BME280;28147;47.520;18.920;2022-12-24T12:56:55;98274.78;;;9.90;80.58
42519;BME280;28147;47.520;18.920;2022-12-24T12:59:55;98276.28;;;9.98;81.25
42519;BME280;28147;47.520;18.920;2022-12-24T13:18:22;98286.69;;;9.99;82.25
42519;BME280;28147;47.520;18.920;2022-12-24T13:20:53;98291.19;;;9.87;82.83
42519;BME280;28147;47.520;18.920;2022-12-24T13:23:21;98297.78;;;9.85;82.84
42519;BME280;28147;47.520;18.920;2022-12-24T13:25:55;98295.25;;;9.90;82.54
42519;BME280;28147;47.520;18.920;2022-12-24T13:36:05;98325.41;;;9.95;82.14
42519;BME280;28147;47.520;18.920;2022-12-24T13:38:38;98313.63;;;9.91;82.33
42519;BME280;28147;47.520;18.920;2022-12-24T13:49:38;98323.81;;;9.94;81.98
42519;BME280;28147;47.520;18.920;2022-12-24T14:00:04;98334.44;;;9.94;82.42
42519;BME280;28147;47.520;18.920;2022-12-24T14:02:33;98335.13;;;9.90;82.86
42519;BME280;28147;47.520;18.920;2022-12-24T14:05:02;98340.66;;;9.88;83.26
42519;BME280;28147;47.520;18.920;2022-12-24T14:07:29;98347.03;;;9.87;83.54
42519;BME280;28147;47.520;18.920;2022-12-24T14:09:56;98356.75;;;9.82;84.17
42519;BME280;28147;47.520;18.920;2022-12-24T14:12:45;98360.44;;;9.81;84.90
42519;BME280;28147;47.520;18.920;2022-12-24T14:18:22;98364.72;;;9.82;84.85
42519;BME280;28147;47.520;18.920;2022-12-24T14:20:53;98366.56;;;9.81;85.17
42519;BME280;28147;47.520;18.920;2022-12-24T14:26:18;98370.03;;;9.70;85.30
42519;BME280;28147;47.520;18.920;2022-12-24T14:28:52;98373.94;;;9.67;86.05
42519;BME280;28147;47.520;18.920;2022-12-24T14:31:19;98375.34;;;9.70;85.83
42519;BME280;28147;47.520;18.920;2022-12-24T14:33:45;98387.31;;;9.61;85.63
42519;BME280;28147;47.520;18.920;2022-12-24T14:36:12;98383.97;;;9.65;85.36
42519;BME280;28147;47.520;18.920;2022-12-24T14:38:43;98393.00;;;9.64;85.49
42519;BME280;28147;47.520;18.920;2022-12-24T14:41:32;98402.38;;;9.67;85.77
42519;BME280;28147;47.520;18.920;2022-12-24T14:44:07;98402.31;;;9.43;86.51
42519;BME280;28147;47.520;18.920;2022-12-24T14:49:32;98402.94;;;9.39;85.73
42519;BME280;28147;47.520;18.920;2022-12-24T14:54:46;98418.38;;;9.48;85.38
42519;BME280;28147;47.520;18.920;2022-12-24T14:57:22;98421.72;;;9.44;85.61
42519;BME280;28147;47.520;18.920;2022-12-24T14:59:54;98431.16;;;9.40;85.52
42519;BME280;28147;47.520;18.920;2022-12-24T15:05:13;98439.13;;;9.40;85.69
42519;BME280;28147;47.520;18.920;2022-12-24T15:07:46;98441.88;;;9.33;85.85
42519;BME280;28147;47.520;18.920;2022-12-24T15:10:30;98440.97;;;9.39;85.71
42519;BME280;28147;47.520;18.920;2022-12-24T15:13:01;98431.13;;;9.28;86.16
42519;BME280;28147;47.520;18.920;2022-12-24T15:15:27;98431.25;;;9.33;86.04
42519;BME280;28147;47.520;18.920;2022-12-24T15:17:54;98431.13;;;9.28;86.56
42519;BME280;28147;47.520;18.920;2022-12-24T15:20:22;98439.16;;;9.21;86.82
42519;BME280;28147;47.520;18.920;2022-12-24T15:22:52;98441.59;;;9.23;87.14
42519;BME280;28147;47.520;18.920;2022-12-24T15:25:22;98437.31;;;9.22;87.25
42519;BME280;28147;47.520;18.920;2022-12-24T15:27:48;98436.13;;;9.18;87.51
42519;BME280;28147;47.520;18.920;2022-12-24T15:30:25;98444.84;;;9.25;87.10
42519;BME280;28147;47.520;18.920;2022-12-24T15:32:56;98438.94;;;9.23;87.27
42519;BME280;28147;47.520;18.920;2022-12-24T15:38:21;98439.53;;;9.25;86.94
42519;BME280;28147;47.520;18.920;2022-12-24T15:40:48;98442.84;;;9.20;87.24
42519;BME280;28147;47.520;18.920;2022-12-24T15:43:13;98460.53;;;9.26;87.51
42519;BME280;28147;47.520;18.920;2022-12-24T15:45:42;98447.06;;;9.28;87.54
42519;BME280;28147;47.520;18.920;2022-12-24T15:48:10;98458.63;;;9.34;87.19
42519;BME280;28147;47.520;18.920;2022-12-24T15:50:44;98458.94;;;9.25;87.03
42519;BME280;28147;47.520;18.920;2022-12-24T15:53:20;98455.22;;;9.26;86.74
42519;BME280;28147;47.520;18.920;2022-12-24T15:56:08;98464.00;;;9.27;86.72
42519;BME280;28147;47.520;18.920;2022-12-24T15:58:36;98471.47;;;9.37;86.15
42519;BME280;28147;47.520;18.920;2022-12-24T16:03:34;98471.81;;;9.40;86.43
42519;BME280;28147;47.520;18.920;2022-12-24T16:06:02;98468.38;;;9.40;86.86
42519;BME280;28147;47.520;18.920;2022-12-24T16:08:32;98479.19;;;9.38;87.41
42519;BME280;28147;47.520;18.920;2022-12-24T16:13:38;98479.50;;;9.30;88.70
42519;BME280;28147;47.520;18.920;2022-12-24T16:16:13;98463.44;;;9.25;88.83
42519;BME280;28147;47.520;18.920;2022-12-24T16:21:24;98471.72;;;9.17;89.28
42519;BME280;28147;47.520;18.920;2022-12-24T16:23:52;98473.41;;;9.11;89.26
42519;BME280;28147;47.520;18.920;2022-12-24T16:26:19;98473.69;;;9.21;88.98
42519;BME280;28147;47.520;18.920;2022-12-24T16:28:44;98481.50;;;9.16;88.87
42519;BME280;28147;47.520;18.920;2022-12-24T16:31:18;98487.47;;;9.30;88.66
42519;BME280;28147;47.520;18.920;2022-12-24T16:33:53;98481.44;;;9.23;89.03
42519;BME280;28147;47.520;18.920;2022-12-24T16:36:19;98491.16;;;9.29;89.04
42519;BME280;28147;47.520;18.920;2022-12-24T16:38:45;98485.19;;;9.34;89.12
42519;BME280;28147;47.520;18.920;2022-12-24T16:41:29;98485.31;;;9.39;91.37
42519;BME280;28147;47.520;18.920;2022-12-24T16:43:54;98488.78;;;9.39;90.13
42519;BME280;28147;47.520;18.920;2022-12-24T16:46:19;98497.28;;;9.30;90.63
42519;BME280;28147;47.520;18.920;2022-12-24T16:48:46;98504.44;;;9.29;90.77
42519;BME280;28147;47.520;18.920;2022-12-24T16:51:12;98505.03;;;9.31;90.54
42519;BME280;28147;47.520;18.920;2022-12-24T16:53:38;98502.16;;;9.33;90.37